sensor_id;sensor_type;location;lat;lon;timestamp;pressure;altitude;pressure_sealevel;temperature;humidity
50322;BME280;36227;53.366;-1.426;2023-05-12T00:00:37;76647.82;;;-214.20;100.00
50322;BME280;36227;53.366;-1.426;2023-05-12T00:03:04;76656.03;;;-214.20;100.00
50322;BME280;36227;53.366;-1.426;2023-05-12T00:05:29;76735.39;;;-213.48;100.00
50322;BME280;36227;53.366;-1.426;2023-05-12T00:07:54;76687.25;;;-213.96;100.00
50322;BME280;36227;53.366;-1.426;2023-05-12T00:10:19;76706.58;;;-213.96;100.00
50322;BME280;36227;53.366;-1.426;2023-05-12T00:12:45;76732.99;;;-213.72;100.00
50322;BME280;36227;53.366;-1.426;2023-05-12T00:15:10;76689.14;;;-214.20;100.00
50322;BME280;36227;53.366;-1.426;2023-05-12T00:17:36;76763.32;;;-213.96;100.00
50322;BME280;36227;53.366;-1.426;2023-05-12T00:20:01;76702.03;;;-214.43;100.00
50322;BME280;36227;53.366;-1.426;2023-05-12T00:22:25;76685.10;;;-214.20;100.00
50322;BME280;36227;53.366;-1.426;2023-05-12T00:24:51;76734.63;;;-213.96;100.00
50322;BME280;36227;53.366;-1.426;2023-05-12T00:27:17;76715.42;;;-213.96;100.00
50322;BME280;36227;53.366;-1.426;2023-05-12T00:29:42;76690.15;;;-213.96;100.00
50322;BME280;36227;53.366;-1.426;2023-05-12T00:32:08;76742.09;;;-213.72;100.00
50322;BME280;36227;53.366;-1.426;2023-05-12T00:34:35;76662.73;;;-214.20;100.00
50322;BME280;36227;53.366;-1.426;2023-05-12T00:36:59;76650.85;;;-214.20;100.00
50322;BME280;36227;53.366;-1.426;2023-05-12T00:39:30;76566.70;;;-214.91;100.00
50322;BME280;36227;53.366;-1.426;2023-05-12T00:41:54;76560.63;;;-214.91;100.00
50322;BME280;36227;53.366;-1.426;2023-05-12T00:44:16;76615.35;;;-214.67;100.00
50322;BME280;36227;53.366;-1.426;2023-05-12T00:46:41;76705.70;;;-213.96;100.00
50322;BME280;36227;53.366;-1.426;2023-05-12T00:49:07;76710.12;;;-213.96;100.00
50322;BME280;36227;53.366;-1.426;2023-05-12T00:51:33;76740.95;;;-213.96;100.00
50322;BME280;36227;53.366;-1.426;2023-05-12T00:53:59;76677.90;;;-213.96;100.00
50322;BME280;36227;53.366;-1.426;2023-05-12T00:56:25;76652.88;;;-214.43;100.00
50322;BME280;36227;53.366;-1.426;2023-05-12T00:58:49;76630.38;;;-214.20;100.00
50322;BME280;36227;53.366;-1.426;2023-05-12T01:01:15;76739.43;;;-214.43;100.00
50322;BME280;36227;53.366;-1.426;2023-05-12T01:03:40;76739.18;;;-214.43;100.00
50322;BME280;36227;53.366;-1.426;2023-05-12T01:06:11;76776.08;;;-213.96;100.00
50322;BME280;36227;53.366;-1.426;2023-05-12T01:08:32;76711.51;;;-213.96;100.00
50322;BME280;36227;53.366;-1.426;2023-05-12T01:10:57;76742.09;;;-213.72;100.00
50322;BME280;36227;53.366;-1.426;2023-05-12T01:13:22;76718.71;;;-213.96;100.00
50322;BME280;36227;53.366;-1.426;2023-05-12T01:15:48;76711.38;;;-214.20;100.00
50322;BME280;36227;53.366;-1.426;2023-05-12T01:18:14;76700.26;;;-213.48;100.00
50322;BME280;36227;53.366;-1.426;2023-05-12T01:20:40;76753.21;;;-213.96;100.00
50322;BME280;36227;53.366;-1.426;2023-05-12T01:23:05;76766.98;;;-213.96;100.00
50322;BME280;36227;53.366;-1.426;2023-05-12T01:25:31;76709.87;;;-214.20;100.00
50322;BME280;36227;53.366;-1.426;2023-05-12T01:27:55;76721.87;;;-214.20;100.00
50322;BME280;36227;53.366;-1.426;2023-05-12T01:30:22;76746.64;;;-213.96;100.00
50322;BME280;36227;53.366;-1.426;2023-05-12T01:32:46;76753.71;;;-213.48;100.00
50322;BME280;36227;53.366;-1.426;2023-05-12T01:35:12;76768.25;;;-213.48;100.00
50322;BME280;36227;53.366;-1.426;2023-05-12T01:37:38;76754.35;;;-213.48;100.00
50322;BME280;36227;53.366;-1.426;2023-05-12T01:40:04;76742.59;;;-213.48;100.00
50322;BME280;36227;53.366;-1.426;2023-05-12T01:42:29;76755.74;;;-213.96;100.00
50322;BME280;36227;53.366;-1.426;2023-05-12T01:44:55;76739.43;;;-214.43;100.00
50322;BME280;36227;53.366;-1.426;2023-05-12T01:47:18;76764.08;;;-214.20;100.00
50322;BME280;36227;53.366;-1.426;2023-05-12T01:49:44;76739.05;;;-213.96;43.99
50322;BME280;36227;53.366;-1.426;2023-05-12T01:52:10;76805.90;;;-213.48;41.42
50322;BME280;36227;53.366;-1.426;2023-05-12T01:54:35;76775.07;;;-213.96;36.34
50322;BME280;36227;53.366;-1.426;2023-05-12T01:57:01;76788.34;;;-213.48;34.66
50322;BME280;36227;53.366;-1.426;2023-05-12T01:59:27;76790.86;;;-213.48;31.55
50322;BME280;36227;53.366;-1.426;2023-05-12T02:01:52;76818.41;;;-213.24;28.91
50322;BME280;36227;53.366;-1.426;2023-05-12T02:04:16;76806.66;;;-213.48;0.00
50322;BME280;36227;53.366;-1.426;2023-05-12T02:06:47;76772.04;;;-214.20;0.00
50322;BME280;36227;53.366;-1.426;2023-05-12T02:09:07;76724.90;;;-214.20;0.00
50322;BME280;36227;53.366;-1.426;2023-05-12T02:11:33;76771.78;;;-213.96;0.00
50322;BME280;36227;53.366;-1.426;2023-05-12T02:13:58;76785.30;;;-213.96;0.00
50322;BME280;36227;53.366;-1.426;2023-05-12T02:16:28;76801.35;;;-213.48;0.00
50322;BME280;36227;53.366;-1.426;2023-05-12T02:18:48;76796.42;;;-213.48;0.00
50322;BME280;36227;53.366;-1.426;2023-05-12T02:21:14;76785.56;;;-213.96;0.00
50322;BME280;36227;53.366;-1.426;2023-05-12T02:23:39;76789.73;;;-213.48;0.00
50322;BME280;36227;53.366;-1.426;2023-05-12T02:26:04;76794.15;;;-213.48;0.00
50322;BME280;36227;53.366;-1.426;2023-05-12T02:28:36;76724.02;;;-214.20;0.00
50322;BME280;36227;53.366;-1.426;2023-05-12T02:30:56;76787.96;;;-213.96;0.00
50322;BME280;36227;53.366;-1.426;2023-05-12T02:33:22;76725.91;;;-213.96;0.00
50322;BME280;36227;53.366;-1.426;2023-05-12T02:35:47;76780.25;;;-213.96;0.00
50322;BME280;36227;53.366;-1.426;2023-05-12T02:38:12;76777.47;;;-213.72;0.00
50322;BME280;36227;53.366;-1.426;2023-05-12T02:40:38;76702.54;;;-214.20;0.00
50322;BME280;36227;53.366;-1.426;2023-05-12T02:43:02;76804.39;;;-213.48;0.00
50322;BME280;36227;53.366;-1.426;2023-05-12T02:45:28;76805.52;;;-213.48;0.00
50322;BME280;36227;53.366;-1.426;2023-05-12T02:47:53;76803.75;;;-213.72;0.00
50322;BME280;36227;53.366;-1.426;2023-05-12T02:50:19;76809.82;;;-214.20;0.00
50322;BME280;36227;53.366;-1.426;2023-05-12T02:52:44;76825.24;;;-213.96;0.00
50322;BME280;36227;53.366;-1.426;2023-05-12T02:55:09;76846.21;;;-213.48;0.00
50322;BME280;36227;53.366;-1.426;2023-05-12T02:57:35;76871.36;;;-213.48;0.00
50322;BME280;36227;53.366;-1.426;2023-05-12T03:00:00;76857.84;;;-213.48;0.00
50322;BME280;36227;53.366;-1.426;2023-05-12T03:07:25;76794.40;;;-213.96;0.00
50322;BME280;36227;53.366;-1.426;2023-05-12T03:09:51;76834.97;;;-213.48;0.00
50322;BME280;36227;53.366;-1.426;2023-05-12T03:12:11;76835.09;;;-213.96;0.00
50322;BME280;36227;53.366;-1.426;2023-05-12T03:14:37;76811.84;;;-214.20;0.00
50322;BME280;36227;53.366;-1.426;2023-05-12T03:16:59;76775.07;;;-213.96;0.00
50322;BME280;36227;53.366;-1.426;2023-05-12T03:19:25;76810.32;;;-213.96;0.00
50322;BME280;36227;53.366;-1.426;2023-05-12T03:21:49;76708.60;;;-214.20;0.00
50322;BME280;36227;53.366;-1.426;2023-05-12T03:24:15;76766.22;;;-213.72;0.00
50322;BME280;36227;53.366;-1.426;2023-05-12T03:26:40;76807.29;;;-213.48;0.00
50322;BME280;36227;53.366;-1.426;2023-05-12T03:29:05;76687.50;;;-213.96;0.00
50322;BME280;36227;53.366;-1.426;2023-05-12T03:31:31;76834.21;;;-213.24;0.00
50322;BME280;36227;53.366;-1.426;2023-05-12T03:33:57;76825.74;;;-213.72;0.00
50322;BME280;36227;53.366;-1.426;2023-05-12T03:36:22;76788.21;;;-214.43;0.00
50322;BME280;36227;53.366;-1.426;2023-05-12T03:38:47;76784.93;;;-213.96;100.00
50322;BME280;36227;53.366;-1.426;2023-05-12T03:41:12;76776.84;;;-213.96;100.00
50322;BME280;36227;53.366;-1.426;2023-05-12T03:43:38;76803.88;;;-213.48;100.00
50322;BME280;36227;53.366;-1.426;2023-05-12T03:46:03;76859.99;;;-213.24;100.00
50322;BME280;36227;53.366;-1.426;2023-05-12T03:48:28;76846.72;;;-213.48;100.00
50322;BME280;36227;53.366;-1.426;2023-05-12T03:50:54;76815.63;;;-213.48;100.00
50322;BME280;36227;53.366;-1.426;2023-05-12T03:53:19;76786.69;;;-213.72;100.00
50322;BME280;36227;53.366;-1.426;2023-05-12T03:55:45;76746.13;;;-214.20;100.00
50322;BME280;36227;53.366;-1.426;2023-05-12T03:58:10;76864.54;;;-214.43;100.00
50322;BME280;36227;53.366;-1.426;2023-05-12T04:00:35;76808.30;;;-213.96;100.00
50322;BME280;36227;53.366;-1.426;2023-05-12T04:03:00;76817.91;;;-213.96;100.00
50322;BME280;36227;53.366;-1.426;2023-05-12T04:05:26;76769.38;;;-213.96;100.00
50322;BME280;36227;53.366;-1.426;2023-05-12T04:07:51;76829.79;;;-213.48;100.00
50322;BME280;36227;53.366;-1.426;2023-05-12T04:10:17;76861.63;;;-213.24;100.00
50322;BME280;36227;53.366;-1.426;2023-05-12T04:12:43;76865.55;;;-213.24;100.00
50322;BME280;36227;53.366;-1.426;2023-05-12T04:15:09;76892.84;;;-213.24;100.00
50322;BME280;36227;53.366;-1.426;2023-05-12T04:17:34;76913.57;;;-213.48;100.00
50322;BME280;36227;53.366;-1.426;2023-05-12T04:20:00;76862.39;;;-213.96;100.00
50322;BME280;36227;53.366;-1.426;2023-05-12T04:22:26;76881.22;;;-213.72;100.00
50322;BME280;36227;53.366;-1.426;2023-05-12T04:24:51;76885.64;;;-213.24;100.00
50322;BME280;36227;53.366;-1.426;2023-05-12T04:27:17;76893.60;;;-213.24;100.00
50322;BME280;36227;53.366;-1.426;2023-05-12T04:29:42;76823.34;;;-213.48;100.00
50322;BME280;36227;53.366;-1.426;2023-05-12T04:32:08;76845.58;;;-213.72;100.00
50322;BME280;36227;53.366;-1.426;2023-05-12T04:34:33;76855.94;;;-213.48;100.00
50322;BME280;36227;53.366;-1.426;2023-05-12T04:36:59;76874.39;;;-213.00;100.00
50322;BME280;36227;53.366;-1.426;2023-05-12T04:39:26;76775.70;;;-213.96;100.00
50322;BME280;36227;53.366;-1.426;2023-05-12T04:41:50;76862.77;;;-214.20;100.00
50322;BME280;36227;53.366;-1.426;2023-05-12T04:44:15;76865.17;;;-213.72;100.00
50322;BME280;36227;53.366;-1.426;2023-05-12T04:46:41;76824.86;;;-213.72;100.00
50322;BME280;36227;53.366;-1.426;2023-05-12T04:49:06;76818.54;;;-213.48;100.00
50322;BME280;36227;53.366;-1.426;2023-05-12T04:51:31;76786.82;;;-213.48;100.00
50322;BME280;36227;53.366;-1.426;2023-05-12T04:53:56;76923.05;;;-213.00;100.00
50322;BME280;36227;53.366;-1.426;2023-05-12T04:56:22;76893.22;;;-213.48;100.00
50322;BME280;36227;53.366;-1.426;2023-05-12T04:58:47;76856.45;;;-213.72;100.00
50322;BME280;36227;53.366;-1.426;2023-05-12T05:01:12;76871.11;;;-213.72;100.00
50322;BME280;36227;53.366;-1.426;2023-05-12T05:03:38;76813.99;;;-214.67;100.00
50322;BME280;36227;53.366;-1.426;2023-05-12T05:06:03;76882.35;;;-213.96;100.00
50322;BME280;36227;53.366;-1.426;2023-05-12T05:08:28;76845.33;;;-213.96;100.00
50322;BME280;36227;53.366;-1.426;2023-05-12T05:10:54;76912.81;;;-213.24;100.00
50322;BME280;36227;53.366;-1.426;2023-05-12T05:13:19;76936.19;;;-213.24;100.00
50322;BME280;36227;53.366;-1.426;2023-05-12T05:15:49;76885.13;;;-213.48;100.00
50322;BME280;36227;53.366;-1.426;2023-05-12T05:18:10;76740.19;;;-213.96;100.00
50322;BME280;36227;53.366;-1.426;2023-05-12T05:20:36;76923.17;;;-213.24;100.00
50322;BME280;36227;53.366;-1.426;2023-05-12T05:25:40;76900.55;;;-214.43;100.00
50322;BME280;36227;53.366;-1.426;2023-05-12T05:27:53;76791.37;;;-214.20;100.00
50322;BME280;36227;53.366;-1.426;2023-05-12T05:30:19;76858.47;;;-213.96;100.00
50322;BME280;36227;53.366;-1.426;2023-05-12T05:32:43;76836.10;;;-213.96;100.00
50322;BME280;36227;53.366;-1.426;2023-05-12T05:35:09;76795.03;;;-213.96;100.00
50322;BME280;36227;53.366;-1.426;2023-05-12T05:37:35;76815.76;;;-213.96;100.00
50322;BME280;36227;53.366;-1.426;2023-05-12T05:40:00;76842.55;;;-213.96;100.00
50322;BME280;36227;53.366;-1.426;2023-05-12T05:42:26;76865.93;;;-213.72;100.00
50322;BME280;36227;53.366;-1.426;2023-05-12T05:44:51;76860.75;;;-214.43;100.00
50322;BME280;36227;53.366;-1.426;2023-05-12T05:47:22;76830.42;;;-214.43;100.00
50322;BME280;36227;53.366;-1.426;2023-05-12T05:49:45;76914.20;;;-213.96;100.00
50322;BME280;36227;53.366;-1.426;2023-05-12T05:54:37;76823.72;;;-213.96;100.00
50322;BME280;36227;53.366;-1.426;2023-05-12T05:56:57;76837.75;;;-213.96;100.00
50322;BME280;36227;53.366;-1.426;2023-05-12T05:59:23;76855.56;;;-213.72;100.00
50322;BME280;36227;53.366;-1.426;2023-05-12T06:01:48;76834.33;;;-213.96;100.00
50322;BME280;36227;53.366;-1.426;2023-05-12T06:04:15;76933.15;;;-213.48;100.00
50322;BME280;36227;53.366;-1.426;2023-05-12T06:06:41;76923.30;;;-213.96;100.00
50322;BME280;36227;53.366;-1.426;2023-05-12T06:09:06;76848.49;;;-214.43;100.00
50322;BME280;36227;53.366;-1.426;2023-05-12T06:11:32;76887.16;;;-213.96;100.00
50322;BME280;36227;53.366;-1.426;2023-05-12T06:13:57;76896.00;;;-213.72;100.00
50322;BME280;36227;53.366;-1.426;2023-05-12T06:16:23;76800.47;;;-213.96;100.00
50322;BME280;36227;53.366;-1.426;2023-05-12T06:18:48;76951.35;;;-213.48;100.00
50322;BME280;36227;53.366;-1.426;2023-05-12T06:21:13;76908.64;;;-213.72;100.00
50322;BME280;36227;53.366;-1.426;2023-05-12T06:23:44;76993.05;;;-213.00;100.00
50322;BME280;36227;53.366;-1.426;2023-05-12T06:26:04;76962.47;;;-213.24;100.00
50322;BME280;36227;53.366;-1.426;2023-05-12T06:28:30;77000.38;;;-213.48;100.00
50322;BME280;36227;53.366;-1.426;2023-05-12T06:30:55;76950.72;;;-213.96;100.00
50322;BME280;36227;53.366;-1.426;2023-05-12T06:33:20;76955.77;;;-213.72;100.00
50322;BME280;36227;53.366;-1.426;2023-05-12T06:35:46;76961.46;;;-213.48;100.00
50322;BME280;36227;53.366;-1.426;2023-05-12T06:38:12;76872.62;;;-213.96;100.00
50322;BME280;36227;53.366;-1.426;2023-05-12T06:40:49;76924.94;;;-213.72;100.00
50322;BME280;36227;53.366;-1.426;2023-05-12T06:43:03;76931.89;;;-213.48;100.00
50322;BME280;36227;53.366;-1.426;2023-05-12T06:45:29;76778.99;;;-214.20;100.00
50322;BME280;36227;53.366;-1.426;2023-05-12T06:47:58;76941.37;;;-213.72;100.00
50322;BME280;36227;53.366;-1.426;2023-05-12T06:50:19;76984.21;;;-213.48;100.00
50322;BME280;36227;53.366;-1.426;2023-05-12T06:52:44;76956.66;;;-214.43;100.00
50322;BME280;36227;53.366;-1.426;2023-05-12T06:55:09;76972.84;;;-213.96;100.00
50322;BME280;36227;53.366;-1.426;2023-05-12T06:57:35;76976.37;;;-213.48;100.00
50322;BME280;36227;53.366;-1.426;2023-05-12T07:00:00;77002.41;;;-213.48;100.00
50322;BME280;36227;53.366;-1.426;2023-05-12T07:02:25;77007.59;;;-213.00;100.00
50322;BME280;36227;53.366;-1.426;2023-05-12T07:04:50;77026.80;;;-213.00;100.00
50322;BME280;36227;53.366;-1.426;2023-05-12T07:07:16;76980.67;;;-213.48;100.00
50322;BME280;36227;53.366;-1.426;2023-05-12T07:09:45;76931.39;;;-213.48;100.00
50322;BME280;36227;53.366;-1.426;2023-05-12T07:12:08;76949.96;;;-213.48;100.00
50322;BME280;36227;53.366;-1.426;2023-05-12T07:14:44;76974.10;;;-213.96;100.00
50322;BME280;36227;53.366;-1.426;2023-05-12T07:16:59;76959.69;;;-213.48;100.00
50322;BME280;36227;53.366;-1.426;2023-05-12T07:19:23;76886.65;;;-213.96;100.00
50322;BME280;36227;53.366;-1.426;2023-05-12T07:24:14;76863.02;;;-213.96;100.00
50322;BME280;36227;53.366;-1.426;2023-05-12T07:26:40;76941.50;;;-213.48;100.00
50322;BME280;36227;53.366;-1.426;2023-05-12T07:29:05;76855.82;;;-213.72;100.00
50322;BME280;36227;53.366;-1.426;2023-05-12T07:31:30;76930.50;;;-213.72;100.00
50322;BME280;36227;53.366;-1.426;2023-05-12T07:33:56;76953.12;;;-213.48;100.00
50322;BME280;36227;53.366;-1.426;2023-05-12T07:36:21;76920.39;;;-214.43;100.00
50322;BME280;36227;53.366;-1.426;2023-05-12T07:38:47;76881.98;;;-214.20;100.00
50322;BME280;36227;53.366;-1.426;2023-05-12T07:41:12;76815.00;;;-213.96;100.00
50322;BME280;36227;53.366;-1.426;2023-05-12T07:43:37;76950.09;;;-213.48;100.00
50322;BME280;36227;53.366;-1.426;2023-05-12T07:46:03;76944.15;;;-213.48;100.00
50322;BME280;36227;53.366;-1.426;2023-05-12T07:48:29;76936.06;;;-213.72;100.00
50322;BME280;36227;53.366;-1.426;2023-05-12T07:50:55;76917.11;;;-213.48;100.00
50322;BME280;36227;53.366;-1.426;2023-05-12T07:53:20;76896.63;;;-213.96;100.00
50322;BME280;36227;53.366;-1.426;2023-05-12T07:55:46;76856.58;;;-214.43;100.00
50322;BME280;36227;53.366;-1.426;2023-05-12T07:58:11;76846.59;;;-214.67;53.84
50322;BME280;36227;53.366;-1.426;2023-05-12T08:00:36;76913.95;;;-213.96;46.49
50322;BME280;36227;53.366;-1.426;2023-05-12T08:03:01;76908.01;;;-213.72;44.43
50322;BME280;36227;53.366;-1.426;2023-05-12T08:05:27;76911.42;;;-213.96;43.58
50322;BME280;36227;53.366;-1.426;2023-05-12T08:07:53;76939.47;;;-213.48;40.63
50322;BME280;36227;53.366;-1.426;2023-05-12T08:10:18;76861.63;;;-213.96;43.72
50322;BME280;36227;53.366;-1.426;2023-05-12T08:12:43;76879.20;;;-213.96;45.47
50322;BME280;36227;53.366;-1.426;2023-05-12T08:15:09;76885.01;;;-214.20;47.95
50322;BME280;36227;53.366;-1.426;2023-05-12T08:17:35;76872.62;;;-214.20;46.23
50322;BME280;36227;53.366;-1.426;2023-05-12T08:20:00;76886.15;;;-214.43;55.68
50322;BME280;36227;53.366;-1.426;2023-05-12T08:22:25;76824.98;;;-214.43;52.42
50322;BME280;36227;53.366;-1.426;2023-05-12T08:24:50;76799.33;;;-214.20;59.16
50322;BME280;36227;53.366;-1.426;2023-05-12T08:27:16;76939.73;;;-213.72;51.00
50322;BME280;36227;53.366;-1.426;2023-05-12T08:29:42;76907.50;;;-213.48;44.12
50322;BME280;36227;53.366;-1.426;2023-05-12T08:32:07;76882.99;;;-213.96;43.64
50322;BME280;36227;53.366;-1.426;2023-05-12T08:34:33;76874.90;;;-213.96;41.79
50322;BME280;36227;53.366;-1.426;2023-05-12T08:36:59;76877.17;;;-213.96;42.78
50322;BME280;36227;53.366;-1.426;2023-05-12T08:39:24;76749.04;;;-214.43;51.81
50322;BME280;36227;53.366;-1.426;2023-05-12T08:41:52;76828.52;;;-214.91;67.84
50322;BME280;36227;53.366;-1.426;2023-05-12T08:44:16;76936.95;;;-213.96;52.53
50322;BME280;36227;53.366;-1.426;2023-05-12T08:46:41;76906.74;;;-213.72;50.63
50322;BME280;36227;53.366;-1.426;2023-05-12T08:49:09;76919.63;;;-213.48;49.07
50322;BME280;36227;53.366;-1.426;2023-05-12T08:51:32;76890.57;;;-213.72;54.24
50322;BME280;36227;53.366;-1.426;2023-05-12T08:53:58;76833.58;;;-213.96;66.66
50322;BME280;36227;53.366;-1.426;2023-05-12T08:56:22;76836.99;;;-213.96;72.63
50322;BME280;36227;53.366;-1.426;2023-05-12T08:58:48;76910.16;;;-213.72;76.29
50322;BME280;36227;53.366;-1.426;2023-05-12T09:01:15;76838.88;;;-214.43;72.19
50322;BME280;36227;53.366;-1.426;2023-05-12T09:03:39;76852.15;;;-214.67;76.64
50322;BME280;36227;53.366;-1.426;2023-05-12T09:06:06;76854.30;;;-214.20;79.57
50322;BME280;36227;53.366;-1.426;2023-05-12T09:08:30;76803.88;;;-214.43;90.54
50322;BME280;36227;53.366;-1.426;2023-05-12T09:10:56;76697.10;;;-214.91;100.00
50322;BME280;36227;53.366;-1.426;2023-05-12T09:13:25;76686.49;;;-214.67;100.00
50322;BME280;36227;53.366;-1.426;2023-05-12T09:15:47;76811.84;;;-214.20;100.00
50322;BME280;36227;53.366;-1.426;2023-05-12T09:18:12;76737.29;;;-214.43;100.00
50322;BME280;36227;53.366;-1.426;2023-05-12T09:20:38;76795.67;;;-214.20;100.00
50322;BME280;36227;53.366;-1.426;2023-05-12T09:23:14;76812.22;;;-213.96;100.00
50322;BME280;36227;53.366;-1.426;2023-05-12T09:25:29;76746.13;;;-214.91;100.00
50322;BME280;36227;53.366;-1.426;2023-05-12T09:27:55;76744.36;;;-214.67;100.00
50322;BME280;36227;53.366;-1.426;2023-05-12T09:30:28;76638.22;;;-214.91;100.00
50322;BME280;36227;53.366;-1.426;2023-05-12T09:32:46;76693.44;;;-214.91;100.00
50322;BME280;36227;53.366;-1.426;2023-05-12T09:35:12;76643.15;;;-214.91;100.00
50322;BME280;36227;53.366;-1.426;2023-05-12T09:37:38;76698.11;;;-214.67;100.00
50322;BME280;36227;53.366;-1.426;2023-05-12T09:40:04;76854.43;;;-213.96;100.00
50322;BME280;36227;53.366;-1.426;2023-05-12T09:42:29;76855.69;;;-213.96;100.00
50322;BME280;36227;53.366;-1.426;2023-05-12T09:44:56;76854.55;;;-214.20;100.00
50322;BME280;36227;53.366;-1.426;2023-05-12T09:47:18;76900.30;;;-214.43;100.00
50322;BME280;36227;53.366;-1.426;2023-05-12T09:49:45;76795.67;;;-214.43;100.00
50322;BME280;36227;53.366;-1.426;2023-05-12T09:52:08;76827.64;;;-214.20;100.00
50322;BME280;36227;53.366;-1.426;2023-05-12T09:54:34;76888.67;;;-213.96;100.00
50322;BME280;36227;53.366;-1.426;2023-05-12T09:57:01;76893.22;;;-213.72;100.00
50322;BME280;36227;53.366;-1.426;2023-05-12T09:59:30;76854.05;;;-214.20;100.00
50322;BME280;36227;53.366;-1.426;2023-05-12T10:01:52;76905.73;;;-213.96;100.00
50322;BME280;36227;53.366;-1.426;2023-05-12T10:04:17;76945.67;;;-213.72;100.00
50322;BME280;36227;53.366;-1.426;2023-05-12T10:06:43;76920.64;;;-213.96;100.00
50322;BME280;36227;53.366;-1.426;2023-05-12T10:09:13;76816.77;;;-214.91;100.00
50322;BME280;36227;53.366;-1.426;2023-05-12T10:11:34;76853.92;;;-214.43;100.00
50322;BME280;36227;53.366;-1.426;2023-05-12T10:13:59;76868.58;;;-214.43;100.00
50322;BME280;36227;53.366;-1.426;2023-05-12T10:16:25;76879.32;;;-214.20;100.00
50322;BME280;36227;53.366;-1.426;2023-05-12T10:18:50;76896.76;;;-213.96;100.00
50322;BME280;36227;53.366;-1.426;2023-05-12T10:21:15;76952.74;;;-213.72;100.00
50322;BME280;36227;53.366;-1.426;2023-05-12T10:23:41;76957.29;;;-213.48;100.00
50322;BME280;36227;53.366;-1.426;2023-05-12T10:26:06;76901.31;;;-214.20;100.00
50322;BME280;36227;53.366;-1.426;2023-05-12T10:28:32;76906.49;;;-214.20;100.00
50322;BME280;36227;53.366;-1.426;2023-05-12T10:30:58;76848.74;;;-215.15;100.00
50322;BME280;36227;53.366;-1.426;2023-05-12T10:33:22;76957.17;;;-214.20;100.00
50322;BME280;36227;53.366;-1.426;2023-05-12T10:35:47;76954.13;;;-213.96;100.00
50322;BME280;36227;53.366;-1.426;2023-05-12T10:38:14;76907.63;;;-213.96;100.00
50322;BME280;36227;53.366;-1.426;2023-05-12T10:40:49;76984.97;;;-213.48;100.00
50322;BME280;36227;53.366;-1.426;2023-05-12T10:43:03;76933.28;;;-213.72;100.00
50322;BME280;36227;53.366;-1.426;2023-05-12T10:45:35;76946.17;;;-213.96;100.00
50322;BME280;36227;53.366;-1.426;2023-05-12T10:48:05;76860.37;;;-214.20;100.00
50322;BME280;36227;53.366;-1.426;2023-05-12T10:50:26;76938.08;;;-213.96;100.00
50322;BME280;36227;53.366;-1.426;2023-05-12T10:52:51;76949.71;;;-214.20;100.00
50322;BME280;36227;53.366;-1.426;2023-05-12T10:55:11;76990.91;;;-214.20;100.00
50322;BME280;36227;53.366;-1.426;2023-05-12T11:00:02;76923.80;;;-213.96;100.00
50322;BME280;36227;53.366;-1.426;2023-05-12T11:02:29;76947.94;;;-213.96;100.00
50322;BME280;36227;53.366;-1.426;2023-05-12T11:04:55;76941.12;;;-213.96;100.00
50322;BME280;36227;53.366;-1.426;2023-05-12T11:07:20;76963.10;;;-213.96;100.00
50322;BME280;36227;53.366;-1.426;2023-05-12T11:09:44;76945.16;;;-213.96;100.00
50322;BME280;36227;53.366;-1.426;2023-05-12T11:12:10;76881.60;;;-213.96;100.00
50322;BME280;36227;53.366;-1.426;2023-05-12T11:14:35;76983.96;;;-213.96;100.00
50322;BME280;36227;53.366;-1.426;2023-05-12T11:17:00;76895.62;;;-214.43;100.00
50322;BME280;36227;53.366;-1.426;2023-05-12T11:19:26;76994.82;;;-214.20;100.00
50322;BME280;36227;53.366;-1.426;2023-05-12T11:21:51;76962.09;;;-213.96;100.00
50322;BME280;36227;53.366;-1.426;2023-05-12T11:24:17;76961.71;;;-213.96;100.00
50322;BME280;36227;53.366;-1.426;2023-05-12T11:26:42;76902.19;;;-214.20;100.00
50322;BME280;36227;53.366;-1.426;2023-05-12T11:29:08;76938.34;;;-213.96;100.00
50322;BME280;36227;53.366;-1.426;2023-05-12T11:31:33;76945.03;;;-213.96;100.00
50322;BME280;36227;53.366;-1.426;2023-05-12T11:34:02;76980.42;;;-213.96;100.00
50322;BME280;36227;53.366;-1.426;2023-05-12T11:36:24;76957.04;;;-214.43;100.00
50322;BME280;36227;53.366;-1.426;2023-05-12T11:38:50;76988.38;;;-214.43;100.00
50322;BME280;36227;53.366;-1.426;2023-05-12T11:41:21;76939.60;;;-214.20;100.00
50322;BME280;36227;53.366;-1.426;2023-05-12T11:43:40;77007.71;;;-213.72;100.00
50322;BME280;36227;53.366;-1.426;2023-05-12T11:46:06;76978.77;;;-213.96;100.00
50322;BME280;36227;53.366;-1.426;2023-05-12T11:48:33;77023.38;;;-213.72;100.00
50322;BME280;36227;53.366;-1.426;2023-05-12T11:50:56;76983.45;;;-213.96;100.00
50322;BME280;36227;53.366;-1.426;2023-05-12T11:53:21;76890.82;;;-214.20;100.00
50322;BME280;36227;53.366;-1.426;2023-05-12T11:55:48;76949.08;;;-213.96;100.00
50322;BME280;36227;53.366;-1.426;2023-05-12T11:58:18;76979.66;;;-214.20;100.00
50322;BME280;36227;53.366;-1.426;2023-05-12T12:00:38;76969.68;;;-214.91;100.00
50322;BME280;36227;53.366;-1.426;2023-05-12T12:03:06;76950.47;;;-214.20;100.00
50322;BME280;36227;53.366;-1.426;2023-05-12T12:05:28;76968.29;;;-213.96;100.00
50322;BME280;36227;53.366;-1.426;2023-05-12T12:08:03;76959.82;;;-213.96;100.00
50322;BME280;36227;53.366;-1.426;2023-05-12T12:10:20;76925.07;;;-213.96;100.00
50322;BME280;36227;53.366;-1.426;2023-05-12T12:12:45;76832.44;;;-214.43;100.00
50322;BME280;36227;53.366;-1.426;2023-05-12T12:15:11;76912.43;;;-214.43;100.00
50322;BME280;36227;53.366;-1.426;2023-05-12T12:17:36;76861.00;;;-214.43;100.00
50322;BME280;36227;53.366;-1.426;2023-05-12T12:20:01;76787.58;;;-214.67;100.00
50322;BME280;36227;53.366;-1.426;2023-05-12T12:22:27;76905.73;;;-214.67;100.00
50322;BME280;36227;53.366;-1.426;2023-05-12T12:24:52;76929.49;;;-214.91;100.00
50322;BME280;36227;53.366;-1.426;2023-05-12T12:27:17;76888.55;;;-214.43;100.00